Time;durP1;ratioP1;P1;durP2;ratioP2;P2;SDS_P1;SDS_P2;PMS_P1;PMS_P2;Temp;Humidity;BMP_temperature;BMP_pressure;BME280_temperature;BME280_humidity;BME280_pressure;Samples;Min_cycle;Max_cycle;Signal;HPM_P1;HPM_P2
2022/10/15 00:00:26;;;;;;;3.57;2.40;;;17.00;68.90;;;;;;20856;6744;117037;-86
2022/10/15 00:03:01;;;;;;;2.20;2.00;;;16.70;69.90;;;;;;20834;6747;117002;-86
2022/10/15 00:05:37;;;;;;;2.70;2.10;;;16.50;70.80;;;;;;20638;6746;306577;-86
2022/10/15 00:08:12;;;;;;;2.20;2.10;;;16.70;70.70;;;;;;20908;6729;118533;-86
2022/10/15 00:10:49;;;;;;;3.30;2.20;;;16.70;70.40;;;;;;20621;6748;311107;-86
2022/10/15 00:13:25;;;;;;;2.17;1.97;;;16.80;70.00;;;;;;20869;6746;117192;-87
2022/10/15 00:16:00;;;;;;;2.10;2.00;;;16.80;69.90;;;;;;20772;6759;116950;-87
2022/10/15 00:18:36;;;;;;;4.32;2.17;;;16.80;70.70;;;;;;20678;6737;291524;-86
2022/10/15 00:21:13;;;;;;;2.93;1.97;;;16.70;70.60;;;;;;20851;6749;117251;-86
2022/10/15 00:23:49;;;;;;;4.00;2.30;;;16.70;70.50;;;;;;20776;6774;117081;-86
2022/10/15 00:26:24;;;;;;;3.50;2.30;;;16.60;71.30;;;;;;20421;6774;339671;-86
2022/10/15 00:29:00;;;;;;;2.70;2.47;;;16.80;71.10;;;;;;20520;6782;308121;-86
2022/10/15 00:31:35;;;;;;;3.83;2.53;;;17.10;70.00;;;;;;20638;6749;307636;-86
2022/10/15 00:34:11;;;;;;;4.10;2.57;;;17.40;68.30;;;;;;20635;6749;306798;-86
2022/10/15 00:36:47;;;;;;;4.13;2.03;;;17.60;67.20;;;;;;20633;6771;119102;-86
2022/10/15 00:39:22;;;;;;;2.50;2.10;;;17.40;67.60;;;;;;20818;6760;117748;-86
2022/10/15 00:41:58;;;;;;;2.92;2.03;;;17.00;68.70;;;;;;20659;6760;275946;-86
2022/10/15 00:44:37;;;;;;;6.70;2.30;;;17.10;69.70;;;;;;20629;6760;320812;-86
2022/10/15 00:47:15;;;;;;;2.72;1.73;;;17.30;68.10;;;;;;20516;6760;308120;-86
2022/10/15 00:49:57;;;;;;;1.73;1.30;;;17.50;67.40;;;;;;20817;6774;118708;-86
2022/10/15 00:52:34;;;;;;;1.03;1.03;;;17.30;67.80;;;;;;20810;6761;118289;-86
2022/10/15 00:55:18;;;;;;;1.53;1.30;;;17.00;69.20;;;;;;20740;6781;122652;-86
2022/10/15 00:57:54;;;;;;;1.10;1.10;;;16.80;70.40;;;;;;20499;6863;120797;-86
2022/10/15 01:00:30;;;;;;;1.17;1.13;;;16.70;71.70;;;;;;20481;6791;280192;-86
2022/10/15 01:03:06;;;;;;;1.37;1.13;;;16.70;71.60;;;;;;20741;6777;119896;-86
2022/10/15 01:05:41;;;;;;;6.57;1.47;;;16.70;71.20;;;;;;20680;6793;119675;-86
2022/10/15 01:08:16;;;;;;;3.00;1.10;;;16.60;71.90;;;;;;20723;6788;117529;-87
2022/10/15 01:10:56;;;;;;;3.90;1.40;;;16.40;72.80;;;;;;20452;6788;309375;-87
2022/10/15 01:13:55;;;;;;;2.27;0.90;;;17.00;71.30;;;;;;20566;6771;329529;-86
2022/10/15 01:16:47;;;;;;;2.23;1.10;;;17.10;71.30;;;;;;20552;6751;280375;-87
2022/10/15 01:19:50;;;;;;;1.98;0.93;;;17.60;68.30;;;;;;20620;6751;337301;-86
2022/10/15 01:23:05;;;;;;;0.97;0.70;;;17.60;68.50;;;;;;20865;6751;118107;-86
2022/10/15 01:26:13;;;;;;;0.50;0.50;;;17.30;68.90;;;;;;20871;6742;117509;-85
2022/10/15 01:29:08;;;;;;;1.77;0.60;;;17.00;70.70;;;;;;20654;6742;277234;-85
2022/10/15 01:32:00;;;;;;;0.98;0.60;;;17.10;71.10;;;;;;20676;6751;307283;-86
2022/10/15 01:34:39;;;;;;;0.90;0.40;;;17.40;69.80;;;;;;20853;6736;117107;-86
2022/10/15 01:37:51;;;;;;;0.53;0.50;;;17.30;69.90;;;;;;20713;6747;122156;-85
2022/10/15 01:40:33;;;;;;;1.93;0.70;;;17.00;71.00;;;;;;20805;6762;117195;-86
2022/10/15 01:43:08;;;;;;;1.17;0.43;;;16.70;72.30;;;;;;20822;6760;119501;-86
2022/10/15 01:46:00;;;;;;;0.60;0.40;;;16.50;73.40;;;;;;20702;6623;304286;-85
2022/10/15 01:48:27;;;;;;;1.50;0.40;;;16.70;73.70;;;;;;20730;6751;275527;-86
2022/10/15 01:51:02;;;;;;;1.10;0.30;;;17.20;72.30;;;;;;20589;6762;335534;-87
2022/10/15 01:53:38;;;;;;;1.63;0.20;;;17.50;70.80;;;;;;20815;6762;117275;-86
2022/10/15 01:56:13;;;;;;;3.00;0.30;;;17.40;70.70;;;;;;20574;6751;280141;-86
2022/10/15 01:58:49;;;;;;;2.17;0.40;;;17.50;70.70;;;;;;20913;6721;126807;-85
2022/10/15 02:01:25;;;;;;;0.97;0.40;;;17.40;70.90;;;;;;20886;6734;117728;-86
2022/10/15 02:04:00;;;;;;;1.60;0.30;;;17.10;71.60;;;;;;20601;6751;278068;-86
2022/10/15 02:06:36;;;;;;;0.60;0.43;;;17.30;71.80;;;;;;20726;6754;117437;-87
2022/10/15 02:09:15;;;;;;;0.43;0.40;;;17.20;71.60;;;;;;20617;6753;278171;-86
2022/10/15 02:12:20;;;;;;;0.60;0.40;;;17.30;71.40;;;;;;20594;6769;281691;-86
2022/10/15 02:15:16;;;;;;;3.73;0.77;;;17.60;70.20;;;;;;20800;6766;120981;-86
2022/10/15 02:17:57;;;;;;;2.95;0.57;;;17.40;70.30;;;;;;20421;6769;308998;-86
2022/10/15 02:20:46;;;;;;;2.03;0.60;;;17.50;70.60;;;;;;20900;6730;118441;-86
2022/10/15 02:23:35;;;;;;;0.50;0.40;;;17.40;71.20;;;;;;20872;6745;121578;-86
2022/10/15 02:26:10;;;;;;;1.30;0.40;;;17.10;72.00;;;;;;20641;6736;341158;-86
2022/10/15 02:28:46;;;;;;;2.03;0.30;;;17.20;72.20;;;;;;20768;6760;118634;-85
2022/10/15 02:31:21;;;;;;;3.08;0.50;;;17.20;72.00;;;;;;20619;6748;307351;-86
2022/10/15 02:33:58;;;;;;;3.77;0.50;;;17.60;70.90;;;;;;20640;6751;277318;-85
2022/10/15 02:36:33;;;;;;;3.50;0.50;;;17.60;70.90;;;;;;20768;6751;117140;-85
2022/10/15 02:39:09;;;;;;;1.90;0.30;;;17.50;70.80;;;;;;20845;6751;116933;-85
2022/10/15 02:41:45;;;;;;;1.30;0.50;;;17.30;72.30;;;;;;20581;6766;308458;-85
2022/10/15 02:44:21;;;;;;;2.30;0.90;;;17.30;72.20;;;;;;20654;6753;305515;-85
2022/10/15 02:46:56;;;;;;;0.30;0.30;;;17.60;71.10;;;;;;20692;6766;117760;-85
2022/10/15 02:49:33;;;;;;;3.60;0.30;;;17.50;71.00;;;;;;20638;6755;305738;-86
2022/10/15 02:52:09;;;;;;;0.50;0.20;;;17.60;71.20;;;;;;20916;6729;118129;-86
2022/10/15 02:54:44;;;;;;;2.17;0.80;;;17.50;71.40;;;;;;20897;6729;122806;-86
2022/10/15 02:57:20;;;;;;;1.05;0.32;;;17.20;72.30;;;;;;20555;6729;308271;-86
2022/10/15 02:59:55;;;;;;;0.20;0.20;;;17.30;72.80;;;;;;20887;6729;117945;-86
2022/10/15 03:02:31;;;;;;;0.70;0.20;;;17.30;72.50;;;;;;20645;6748;279984;-86
2022/10/15 03:05:11;;;;;;;1.70;0.30;;;17.70;71.40;;;;;;20612;6748;310999;-86
2022/10/15 03:07:44;;;;;;;0.43;0.27;;;17.90;70.40;;;;;;20493;6742;308653;-86
2022/10/15 03:10:26;;;;;;;0.40;0.30;;;17.90;70.20;;;;;;20856;6742;118867;-86
2022/10/15 03:13:02;;;;;;;1.20;0.40;;;17.80;70.40;;;;;;20792;6753;117251;-88
2022/10/15 03:15:37;;;;;;;0.20;0.20;;;17.50;71.60;;;;;;20793;6764;118370;-87
2022/10/15 03:18:13;;;;;;;1.08;0.28;;;17.20;72.80;;;;;;20627;6752;306275;-86
2022/10/15 03:20:55;;;;;;;1.60;0.50;;;17.30;73.00;;;;;;20660;6737;275813;-86
2022/10/15 03:23:30;;;;;;;0.40;0.20;;;17.60;71.70;;;;;;20866;6744;116195;-86
2022/10/15 03:26:06;;;;;;;1.97;0.23;;;17.50;71.50;;;;;;20806;6763;117100;-85
2022/10/15 03:28:41;;;;;;;0.23;0.20;;;17.30;72.50;;;;;;20853;6763;119507;-86
2022/10/15 03:31:18;;;;;;;0.47;0.30;;;16.90;75.40;;;;;;20858;6744;117284;-86
2022/10/15 03:33:53;;;;;;;0.80;0.20;;;16.90;74.80;;;;;;20560;6774;306239;-88
2022/10/15 03:36:30;;;;;;;1.93;0.33;;;17.10;74.60;;;;;;20791;6742;116893;-85
2022/10/15 03:39:07;;;;;;;2.57;0.20;;;17.10;74.00;;;;;;20825;6751;120140;-86
2022/10/15 03:41:41;;;;;;;1.70;0.30;;;17.00;74.70;;;;;;20826;6756;116969;-85
2022/10/15 03:44:17;;;;;;;0.40;0.10;;;17.10;75.10;;;;;;20644;6762;310249;-86
2022/10/15 03:46:53;;;;;;;3.30;0.33;;;17.00;75.00;;;;;;20650;6751;118240;-85
2022/10/15 03:49:29;;;;;;;0.97;0.30;;;17.10;74.40;;;;;;20807;6752;118162;-85
2022/10/15 03:52:07;;;;;;;1.67;0.30;;;16.90;75.00;;;;;;20555;6761;311123;-86
2022/10/15 03:54:40;;;;;;;1.80;0.30;;;17.10;74.80;;;;;;20578;6759;307348;-88
2022/10/15 03:57:15;;;;;;;1.37;0.20;;;17.50;73.10;;;;;;20648;6748;117523;-85
2022/10/15 03:59:51;;;;;;;2.00;0.27;;;17.40;72.70;;;;;;20774;6759;118150;-86
2022/10/15 04:02:28;;;;;;;0.43;0.33;;;17.20;73.60;;;;;;20817;6759;119492;-85
2022/10/15 04:05:05;;;;;;;0.90;0.40;;;17.00;74.70;;;;;;20513;6783;282207;-85
2022/10/15 04:07:41;;;;;;;0.83;0.30;;;17.20;74.50;;;;;;20506;6801;118152;-86
2022/10/15 04:10:16;;;;;;;0.70;0.13;;;17.20;74.10;;;;;;20494;6796;309100;-86
2022/10/15 04:12:58;;;;;;;0.67;0.37;;;17.40;73.50;;;;;;20688;6793;143964;-85
2022/10/15 04:15:34;;;;;;;1.20;0.37;;;17.30;73.20;;;;;;20722;6778;117273;-85
2022/10/15 04:18:19;;;;;;;2.33;0.30;;;17.10;74.10;;;;;;20793;6770;117228;-86
2022/10/15 04:20:45;;;;;;;1.00;0.20;;;16.90;75.00;;;;;;20745;6778;117212;-86
2022/10/15 04:23:21;;;;;;;0.20;0.20;;;16.70;76.60;;;;;;20764;6778;117832;-85
2022/10/15 04:25:57;;;;;;;1.53;0.23;;;16.70;76.60;;;;;;20739;6778;123182;-84
2022/10/15 04:28:32;;;;;;;0.83;0.17;;;16.60;77.10;;;;;;20751;6760;118393;-87
2022/10/15 04:31:09;;;;;;;0.30;0.30;;;16.60;77.60;;;;;;20761;6764;117540;-85
2022/10/15 04:33:45;;;;;;;0.60;0.30;;;16.50;78.10;;;;;;20805;6764;121132;-86
2022/10/15 04:36:20;;;;;;;2.00;0.23;;;16.50;78.40;;;;;;20714;6764;117587;-86
2022/10/15 04:38:56;;;;;;;1.00;0.30;;;16.40;78.70;;;;;;20579;6764;280193;-86
2022/10/15 04:41:31;;;;;;;2.80;0.33;;;16.70;77.80;;;;;;20802;6764;118287;-85
2022/10/15 04:44:07;;;;;;;0.30;0.30;;;16.90;76.80;;;;;;20806;6763;120738;-85
2022/10/15 04:46:43;;;;;;;4.40;0.50;;;16.80;77.10;;;;;;20456;6763;338646;-86
2022/10/15 04:49:18;;;;;;;1.60;0.47;;;17.00;76.10;;;;;;20651;6741;304813;-85
2022/10/15 04:51:54;;;;;;;3.75;0.70;;;17.40;73.90;;;;;;20590;6756;338843;-85
2022/10/15 04:54:30;;;;;;;1.77;0.40;;;17.90;70.60;;;;;;20544;6778;307108;-86
2022/10/15 04:57:22;;;;;;;;;;;;;;;;;;;;;
2022/10/15 04:59:54;;;;;;;1.80;0.33;;;17.80;70.80;;;;;;20783;6826;117143;-85
2022/10/15 05:02:33;;;;;;;3.70;0.40;;;17.50;72.20;;;;;;20856;6755;117699;-85
2022/10/15 05:05:12;;;;;;;0.53;0.30;;;17.20;73.40;;;;;;20883;6755;117273;-85
2022/10/15 05:08:02;;;;;;;;;;;;;;;;;;;;;
2022/10/15 05:10:28;;;;;;;2.30;0.70;;;16.80;75.40;;;;;;20435;6845;308245;-86
2022/10/15 05:13:15;;;;;;;;;;;;;;;;;;;;;
2022/10/15 05:15:42;;;;;;;4.20;0.57;;;17.10;74.00;;;;;;20778;6770;116988;-85
2022/10/15 05:18:25;;;;;;;0.77;0.37;;;16.80;75.30;;;;;;20674;6755;116420;-85
2022/10/15 05:20:58;;;;;;;1.48;0.40;;;16.80;75.30;;;;;;20630;6754;277444;-85
2022/10/15 05:23:35;;;;;;;0.43;0.37;;;17.00;74.60;;;;;;20800;6770;117327;-86
2022/10/15 05:26:27;;;;;;;2.30;0.40;;;17.10;74.20;;;;;;20725;6770;117128;-86
2022/10/15 05:29:03;;;;;;;0.37;0.37;;;16.90;74.60;;;;;;20855;6748;117099;-86
2022/10/15 05:31:42;;;;;;;2.45;0.75;;;16.70;75.50;;;;;;20580;6748;309343;-84
2022/10/15 05:34:14;;;;;;;0.40;0.40;;;17.00;74.70;;;;;;20852;6748;121904;-85
2022/10/15 05:36:49;;;;;;;1.80;0.52;;;17.00;74.20;;;;;;20575;6733;293285;-83
2022/10/15 05:39:28;;;;;;;1.87;0.43;;;17.20;73.10;;;;;;20592;6761;307297;-85
2022/10/15 05:42:01;;;;;;;2.57;0.53;;;17.50;71.50;;;;;;20792;6767;117605;-85
2022/10/15 05:44:39;;;;;;;2.47;0.50;;;17.50;71.50;;;;;;20727;6786;117306;-86
2022/10/15 05:47:12;;;;;;;2.12;0.70;;;17.30;72.00;;;;;;20413;6781;338196;-85
2022/10/15 05:49:48;;;;;;;1.00;0.30;;;17.30;71.90;;;;;;20821;6756;118664;-85
2022/10/15 05:52:27;;;;;;;2.83;0.67;;;17.30;72.00;;;;;;20791;6764;121648;-88
2022/10/15 05:54:59;;;;;;;0.73;0.40;;;17.10;72.80;;;;;;20516;6764;343336;-86
2022/10/15 05:57:35;;;;;;;1.83;0.60;;;17.20;72.20;;;;;;20496;6759;308397;-87
2022/10/15 06:00:20;;;;;;;0.40;0.30;;;17.50;70.60;;;;;;20787;6771;117528;-86
2022/10/15 06:02:46;;;;;;;1.93;0.50;;;17.40;70.60;;;;;;20766;6756;118712;-87
2022/10/15 06:05:27;;;;;;;3.28;0.50;;;17.20;71.50;;;;;;20608;6756;312750;-86
2022/10/15 06:07:58;;;;;;;3.90;0.80;;;17.30;71.20;;;;;;20579;6830;116900;-87
2022/10/15 06:10:37;;;;;;;1.73;1.23;;;17.20;71.30;;;;;;20780;6745;117617;-89
2022/10/15 06:13:12;;;;;;;1.63;0.70;;;17.00;72.10;;;;;;20635;6745;328946;-90
2022/10/15 06:15:48;;;;;;;2.65;0.90;;;17.20;71.60;;;;;;20614;6760;307487;-87
2022/10/15 06:18:23;;;;;;;1.30;0.77;;;17.50;70.20;;;;;;20823;6760;118050;-87
2022/10/15 06:20:59;;;;;;;2.58;0.80;;;17.50;70.20;;;;;;20578;6763;458235;-88
2022/10/15 06:23:35;;;;;;;2.30;0.70;;;17.80;68.90;;;;;;20526;6777;310567;-88
2022/10/15 06:26:12;;;;;;;1.93;0.70;;;17.70;68.80;;;;;;20762;6775;117965;-88
2022/10/15 06:28:48;;;;;;;1.20;0.50;;;17.60;69.10;;;;;;20770;6760;118075;-87
2022/10/15 06:31:23;;;;;;;1.10;0.50;;;17.30;70.20;;;;;;20644;6749;306571;-88
2022/10/15 06:33:59;;;;;;;2.62;0.70;;;17.40;70.30;;;;;;20590;6749;337293;-89
2022/10/15 06:36:34;;;;;;;0.47;0.33;;;17.70;69.40;;;;;;20702;6774;117544;-89
2022/10/15 06:39:10;;;;;;;2.47;0.60;;;17.60;69.60;;;;;;20496;6788;309386;-92
2022/10/15 06:41:46;;;;;;;1.40;0.70;;;17.70;69.40;;;;;;20553;6773;311815;-89
2022/10/15 06:44:23;;;;;;;0.67;0.60;;;17.90;68.60;;;;;;20747;6772;117156;-90
2022/10/15 06:47:00;;;;;;;4.90;0.80;;;17.80;68.90;;;;;;20616;6789;146053;-91
2022/10/15 06:49:35;;;;;;;1.40;0.80;;;17.50;70.00;;;;;;20524;6789;337742;-89
2022/10/15 06:52:11;;;;;;;2.57;0.90;;;17.60;70.20;;;;;;20545;6791;277677;-92
2022/10/15 06:54:46;;;;;;;1.60;0.60;;;17.90;69.20;;;;;;20485;6781;315497;-89
2022/10/15 06:57:24;;;;;;;2.50;0.80;;;18.10;68.10;;;;;;20358;6804;316879;-89
2022/10/15 07:00:01;;;;;;;2.83;0.60;;;18.30;67.10;;;;;;20765;6764;118660;-90
2022/10/15 07:02:33;;;;;;;1.90;0.80;;;18.00;67.50;;;;;;20812;6764;117353;-92
2022/10/15 07:05:09;;;;;;;2.13;0.60;;;17.70;68.80;;;;;;20792;6774;118029;-90
2022/10/15 07:07:51;;;;;;;0.53;0.40;;;17.50;70.20;;;;;;20627;6750;119703;-89
2022/10/15 07:10:27;;;;;;;0.40;0.40;;;17.20;71.40;;;;;;20630;6749;277695;-84
2022/10/15 07:13:11;;;;;;;0.50;0.50;;;17.50;71.10;;;;;;20578;6749;315945;-87
2022/10/15 07:15:48;;;;;;;;;;;;;;;;;;;;;
2022/10/15 07:18:26;;;;;;;1.45;0.60;;;17.90;69.30;;;;;;20653;6762;308008;-96
2022/10/15 07:20:52;;;;;;;1.60;0.60;;;18.00;68.40;;;;;;20560;6816;307937;-89
2022/10/15 07:23:29;;;;;;;4.17;0.70;;;18.40;67.20;;;;;;20614;6760;306722;-91
2022/10/15 07:28:40;;;;;;;0.83;0.37;;;18.50;66.40;;;;;;20485;6831;120536;-87
2022/10/15 07:31:16;;;;;;;2.42;0.60;;;18.10;67.40;;;;;;20592;6760;307766;-87
2022/10/15 07:33:52;;;;;;;0.60;0.37;;;18.20;68.10;;;;;;20802;6760;116840;-91
2022/10/15 07:36:27;;;;;;;2.67;0.50;;;18.10;68.30;;;;;;20692;6760;117280;-89
2022/10/15 07:39:03;;;;;;;3.05;0.60;;;17.90;69.30;;;;;;20535;6760;311064;-86
2022/10/15 07:41:48;;;;;;;2.03;0.73;;;18.00;70.20;;;;;;20820;6760;117399;-86
2022/10/15 07:44:24;;;;;;;1.13;0.60;;;18.00;70.20;;;;;;20813;6760;117157;-88
2022/10/15 07:46:50;;;;;;;1.15;0.50;;;17.80;71.10;;;;;;20471;6760;279837;-88
2022/10/15 07:49:25;;;;;;;4.57;3.90;;;17.90;71.60;;;;;;20825;6757;117328;-88
2022/10/15 07:52:11;;;;;;;27.55;24.10;;;18.00;71.50;;;;;;20617;6757;278505;-88
2022/10/15 07:54:36;;;;;;;2.27;2.17;;;18.10;71.30;;;;;;20762;6774;117488;-88
2022/10/15 07:57:12;;;;;;;3.40;2.67;;;18.10;71.30;;;;;;20224;6794;286108;-89
2022/10/15 08:00:09;;;;;;;2.03;0.90;;;18.30;71.40;;;;;;20193;7035;68589;-89
2022/10/15 08:02:45;;;;;;;2.65;0.90;;;18.20;71.30;;;;;;20253;6804;337521;-89
2022/10/15 08:05:21;;;;;;;2.77;0.97;;;18.70;69.90;;;;;;20511;6789;279308;-88
2022/10/15 08:10:32;;;;;;;0.80;0.80;;;18.60;70.10;;;;;;20717;6775;117764;-89
2022/10/15 08:13:08;;;;;;;1.60;1.03;;;18.40;71.40;;;;;;20807;6762;117198;-89
2022/10/15 08:15:43;;;;;;;1.75;0.90;;;18.30;72.60;;;;;;20653;6762;292910;-89
2022/10/15 08:18:19;;;;;;;4.20;0.97;;;18.50;72.20;;;;;;20760;6776;117547;-89
2022/10/15 08:20:54;;;;;;;0.90;0.67;;;18.50;71.80;;;;;;20365;6803;308325;-89
2022/10/15 08:23:31;;;;;;;1.27;0.80;;;19.00;70.40;;;;;;20535;6782;314255;-89
2022/10/15 08:26:07;;;;;;;4.33;0.60;;;19.00;70.40;;;;;;20646;6801;117102;-89
2022/10/15 08:28:52;;;;;;;2.77;0.53;;;19.00;70.30;;;;;;20735;6780;118665;-90
2022/10/15 08:31:18;;;;;;;0.90;0.47;;;18.80;71.50;;;;;;20503;6780;312815;-89
2022/10/15 08:33:53;;;;;;;1.52;1.00;;;18.90;70.90;;;;;;20580;6768;336158;-89
2022/10/15 08:36:29;;;;;;;0.60;0.60;;;19.20;69.40;;;;;;20744;6766;116392;-90
2022/10/15 08:39:06;;;;;;;1.17;0.63;;;19.20;69.70;;;;;;20851;6741;123626;-89
2022/10/15 08:41:44;;;;;;;1.67;0.50;;;19.20;70.90;;;;;;20687;6736;308094;-89
2022/10/15 08:44:24;;;;;;;1.27;0.50;;;19.50;68.70;;;;;;20616;6753;311426;-88
2022/10/15 08:47:16;;;;;;;0.23;0.23;;;19.50;68.70;;;;;;20646;6806;117539;-91
2022/10/15 08:49:53;;;;;;;0.47;0.47;;;19.50;68.50;;;;;;20605;6761;276732;-90
2022/10/15 08:52:30;;;;;;;1.03;0.60;;;19.60;67.40;;;;;;20766;6777;118238;-90
2022/10/15 08:55:05;;;;;;;1.30;0.40;;;19.50;67.60;;;;;;20783;6766;119818;-91
2022/10/15 08:57:47;;;;;;;1.40;0.37;;;19.20;68.50;;;;;;20619;6759;117821;-91
2022/10/15 09:00:23;;;;;;;1.33;0.30;;;19.10;69.90;;;;;;20799;6760;117692;-89
2022/10/15 09:03:29;;;;;;;1.30;0.73;;;19.00;70.90;;;;;;20786;6759;119166;-92
2022/10/15 09:06:14;;;;;;;1.13;0.20;;;18.90;71.30;;;;;;20737;6781;117582;-88
2022/10/15 09:08:50;;;;;;;2.78;0.50;;;18.80;72.00;;;;;;20472;6770;307057;-88
2022/10/15 09:12:05;;;;;;;1.73;0.73;;;19.20;70.60;;;;;;20687;6804;118157;-88
2022/10/15 09:14:42;;;;;;;2.70;0.53;;;19.10;70.70;;;;;;20711;6785;121729;-86
2022/10/15 09:17:24;;;;;;;1.13;0.43;;;19.10;70.70;;;;;;20584;6789;117943;-88
2022/10/15 09:19:59;;;;;;;0.97;0.60;;;19.10;71.20;;;;;;20650;6789;123062;-90
2022/10/15 09:22:51;;;;;;;1.85;0.60;;;19.00;71.40;;;;;;20351;6765;305106;-88
2022/10/15 09:25:14;;;;;;;1.20;0.43;;;19.20;69.60;;;;;;20792;6757;119765;-88
2022/10/15 09:27:59;;;;;;;0.43;0.40;;;19.50;69.10;;;;;;20429;6793;338735;-89
2022/10/15 09:30:32;;;;;;;1.93;0.70;;;19.50;68.50;;;;;;20723;6786;117639;-90
2022/10/15 09:33:30;;;;;;;5.17;0.60;;;19.60;68.70;;;;;;20703;6796;117543;-93
2022/10/15 09:36:35;;;;;;;0.80;0.50;;;19.40;69.30;;;;;;21197;6521;89125;-94
2022/10/15 09:39:23;;;;;;;0.40;0.40;;;19.40;69.90;;;;;;19604;7138;304998;-95
2022/10/15 09:42:09;;;;;;;0.57;0.33;;;19.70;69.10;;;;;;20740;6785;117491;-96
2022/10/15 09:44:34;;;;;;;1.80;0.70;;;19.80;68.40;;;;;;20501;6861;307595;-93
2022/10/15 09:47:33;;;;;;;2.20;0.60;;;20.10;66.80;;;;;;20467;6868;278343;-96
2022/10/15 09:50:00;;;;;;;0.50;0.50;;;20.40;64.70;;;;;;20711;6862;117229;-95
2022/10/15 09:52:46;;;;;;;1.17;0.50;;;20.30;64.60;;;;;;20690;6868;68487;-94
2022/10/15 09:55:24;;;;;;;2.78;0.77;;;20.10;65.10;;;;;;20273;6868;309630;-95
2022/10/15 09:57:50;;;;;;;1.07;0.70;;;20.20;64.60;;;;;;20674;6647;120284;-85
2022/10/15 10:00:25;;;;;;;3.37;0.90;;;20.20;65.00;;;;;;20612;6748;312212;-86
2022/10/15 10:03:05;;;;;;;5.47;0.80;;;20.30;64.00;;;;;;20757;6815;118748;-85
2022/10/15 10:05:39;;;;;;;4.67;0.90;;;20.30;64.50;;;;;;20803;6759;121393;-86
2022/10/15 10:08:19;;;;;;;0.73;0.70;;;19.90;66.10;;;;;;20835;6759;116086;-86
2022/10/15 10:10:59;;;;;;;4.03;0.97;;;19.90;66.10;;;;;;20812;6762;118558;-88
2022/10/15 10:13:45;;;;;;;3.30;0.73;;;19.80;66.90;;;;;;20806;6763;116982;-86
2022/10/15 10:16:21;;;;;;;2.70;0.70;;;19.60;67.30;;;;;;20583;6819;117470;-87
2022/10/15 10:18:59;;;;;;;1.80;0.90;;;19.60;67.30;;;;;;20628;6747;281346;-86
2022/10/15 10:21:38;;;;;;;1.80;0.80;;;20.40;64.30;;;;;;20646;6747;277151;-85
2022/10/15 10:24:30;;;;;;;1.95;0.80;;;20.40;64.50;;;;;;20628;6747;336853;-85
2022/10/15 10:27:05;;;;;;;1.13;0.90;;;20.80;63.40;;;;;;20486;6747;309560;-87
2022/10/15 10:29:42;;;;;;;3.73;0.80;;;21.30;61.50;;;;;;20760;6761;117694;-86
2022/10/15 10:32:16;;;;;;;4.37;1.00;;;21.40;61.70;;;;;;20739;6791;117932;-88
2022/10/15 10:34:52;;;;;;;2.83;0.90;;;21.30;62.30;;;;;;20568;6740;310582;-89
2022/10/15 10:37:29;;;;;;;4.35;0.90;;;21.40;59.90;;;;;;20416;6795;309847;-87
2022/10/15 10:40:05;;;;;;;1.27;0.80;;;21.80;58.50;;;;;;20700;6795;117243;-89
2022/10/15 10:42:40;;;;;;;2.00;0.90;;;21.70;58.40;;;;;;20493;6789;308467;-88
2022/10/15 10:45:33;;;;;;;;;;;;;;;;;;;;;
2022/10/15 10:48:00;;;;;;;1.42;0.90;;;21.60;56.40;;;;;;20386;6759;336531;-89
2022/10/15 10:50:40;;;;;;;1.07;0.80;;;21.60;55.30;;;;;;20693;6866;116508;-89
2022/10/15 10:53:21;;;;;;;2.03;0.97;;;21.00;57.00;;;;;;20795;6762;117074;-88
2022/10/15 10:55:58;;;;;;;3.10;0.80;;;21.10;56.80;;;;;;20524;6773;338785;-88
2022/10/15 10:58:33;;;;;;;1.10;0.80;;;21.10;56.90;;;;;;20771;6773;117135;-88
2022/10/15 11:01:12;;;;;;;1.63;0.80;;;21.00;57.50;;;;;;20780;6793;117197;-90
2022/10/15 11:03:49;;;;;;;2.58;0.90;;;20.80;58.50;;;;;;20631;6777;306587;-88
2022/10/15 11:06:48;;;;;;;5.97;0.70;;;21.00;57.20;;;;;;20878;6743;116879;-89
2022/10/15 11:09:34;;;;;;;0.80;0.80;;;21.00;57.20;;;;;;20634;6788;116897;-87
2022/10/15 11:12:21;;;;;;;2.27;0.73;;;20.80;57.60;;;;;;20767;6773;118116;-88
2022/10/15 11:14:59;;;;;;;2.40;0.77;;;20.50;57.50;;;;;;20810;6762;120633;-90
2022/10/15 11:18:01;;;;;;;2.40;0.90;;;20.30;57.70;;;;;;20546;6757;281492;-87
2022/10/15 11:20:54;;;;;;;2.17;1.00;;;20.40;56.20;;;;;;20751;6724;308909;-88
2022/10/15 11:24:02;;;;;;;4.00;1.17;;;20.80;56.10;;;;;;20987;6724;116750;-88
2022/10/15 11:26:54;;;;;;;1.73;0.63;;;20.70;57.00;;;;;;20810;6750;116992;-88
2022/10/15 11:29:37;;;;;;;1.25;1.15;;;20.50;57.90;;;;;;20091;6802;311735;-88
2022/10/15 11:32:21;;;;;;;1.53;1.03;;;20.60;56.40;;;;;;20686;6750;306051;-88
2022/10/15 11:35:31;;;;;;;1.03;0.70;;;21.00;56.00;;;;;;20919;6739;120970;-87
2022/10/15 11:38:33;;;;;;;5.43;0.90;;;20.90;55.80;;;;;;20711;6745;301520;-86
2022/10/15 11:41:35;;;;;;;2.10;0.60;;;21.10;54.60;;;;;;20928;6740;116863;-88
2022/10/15 11:44:13;;;;;;;0.80;0.80;;;21.10;56.20;;;;;;20938;6740;116791;-87
2022/10/15 11:47:23;;;;;;;1.43;0.90;;;20.60;56.90;;;;;;20684;6763;118019;-87
2022/10/15 11:51:08;;;;;;;;;;;;;;;;;;;;;
2022/10/15 11:53:45;;;;;;;1.50;0.70;;;20.60;57.70;;;;;;19736;7146;119394;-87
2022/10/15 11:56:27;;;;;;;2.67;0.82;;;20.60;58.30;;;;;;20590;6760;340813;-87
2022/10/15 11:59:03;;;;;;;2.75;0.70;;;21.00;55.90;;;;;;20708;6733;309677;-87
2022/10/15 12:01:45;;;;;;;1.03;0.73;;;21.60;55.60;;;;;;20532;6774;307736;-87
2022/10/15 12:04:49;;;;;;;1.90;0.90;;;22.10;54.50;;;;;;20697;6830;117854;-87
2022/10/15 12:07:26;;;;;;;1.13;0.77;;;22.00;54.30;;;;;;20723;6765;117703;-87
2022/10/15 12:10:01;;;;;;;0.90;0.60;;;21.90;54.70;;;;;;20937;6732;116989;-88
2022/10/15 12:12:47;;;;;;;0.93;0.77;;;21.70;54.50;;;;;;20910;6747;117687;-88
2022/10/15 12:15:28;;;;;;;0.70;0.60;;;21.60;55.00;;;;;;20114;6774;275263;-86
2022/10/15 12:18:22;;;;;;;2.60;0.77;;;21.80;53.20;;;;;;20717;6733;339612;-87
2022/10/15 12:20:48;;;;;;;0.57;0.50;;;22.10;52.50;;;;;;20871;6766;123479;-86
2022/10/15 12:23:33;;;;;;;3.03;0.70;;;22.10;53.30;;;;;;20651;6768;306046;-86
2022/10/15 12:26:30;;;;;;;0.77;0.50;;;22.20;52.40;;;;;;20840;6793;118120;-87
2022/10/15 12:29:17;;;;;;;1.10;0.70;;;22.10;52.90;;;;;;20686;6746;277082;-87
2022/10/15 12:31:50;;;;;;;0.93;0.57;;;22.20;51.00;;;;;;20832;6775;117493;-87
2022/10/15 12:34:28;;;;;;;0.83;0.60;;;22.20;52.10;;;;;;20891;6752;117312;-86
2022/10/15 12:37:09;;;;;;;0.57;0.50;;;22.00;53.30;;;;;;20687;6751;121008;-89
2022/10/15 12:39:39;;;;;;;1.30;0.70;;;21.90;53.80;;;;;;20660;6754;308581;-87
2022/10/15 12:42:25;;;;;;;0.73;0.43;;;22.20;52.90;;;;;;20866;6754;117277;-88
2022/10/15 12:45:07;;;;;;;3.07;0.70;;;22.20;52.90;;;;;;20597;6797;307094;-88
2022/10/15 12:48:02;;;;;;;3.60;0.60;;;22.40;51.60;;;;;;20433;6812;307186;-86
2022/10/15 12:50:38;;;;;;;5.10;0.67;;;22.60;50.10;;;;;;20925;6741;116964;-87
2022/10/15 12:53:35;;;;;;;1.00;0.60;;;22.40;51.20;;;;;;20654;6755;305759;-89
2022/10/15 12:56:18;;;;;;;0.60;0.50;;;22.40;50.80;;;;;;20615;6755;278439;-88
2022/10/15 12:58:51;;;;;;;2.50;0.60;;;22.50;50.10;;;;;;20865;6741;145821;-90
2022/10/15 13:01:28;;;;;;;1.30;0.70;;;22.30;51.20;;;;;;20722;6741;306328;-90
2022/10/15 13:04:05;;;;;;;1.45;0.80;;;22.20;50.00;;;;;;20696;6782;278733;-88
2022/10/15 13:06:50;;;;;;;;;;;;;;;;;;;;;
2022/10/15 13:09:26;;;;;;;1.00;0.57;;;22.50;50.10;;;;;;20851;6756;116315;-87
2022/10/15 13:11:59;;;;;;;2.10;0.70;;;22.30;51.20;;;;;;20654;6796;305362;-89
2022/10/15 13:14:48;;;;;;;;;;;;;;;;;;;;;
2022/10/15 13:17:14;;;;;;;1.40;0.73;;;22.50;50.70;;;;;;20698;6760;117628;-88
2022/10/15 13:20:09;;;;;;;2.10;0.63;;;22.30;51.60;;;;;;20933;6744;116308;-89
2022/10/15 13:22:46;;;;;;;4.00;0.80;;;22.00;52.30;;;;;;20576;6775;307002;-89
2022/10/15 13:25:22;;;;;;;2.73;0.70;;;22.10;51.10;;;;;;20466;6766;277782;-92
2022/10/15 13:27:57;;;;;;;1.27;0.77;;;22.30;50.80;;;;;;20583;6751;298702;-88
2022/10/15 13:33:19;;;;;;;;;;;;;;;;;;;;;
2022/10/15 13:36:05;;;;;;;3.90;0.80;;;21.90;51.50;;;;;;20051;7019;314219;-88
2022/10/15 13:38:52;;;;;;;;;;;;;;;;;;;;;
2022/10/15 13:41:21;;;;;;;1.60;0.60;;;21.90;51.60;;;;;;20629;6778;120430;-88
2022/10/15 13:44:08;;;;;;;;;;;;;;;;;;;;;
2022/10/15 13:46:33;;;;;;;2.23;0.70;;;21.60;52.50;;;;;;20729;6818;117396;-88
2022/10/15 13:49:10;;;;;;;3.60;0.60;;;21.30;53.30;;;;;;20617;6763;117178;-88
2022/10/15 13:51:46;;;;;;;1.13;0.50;;;21.10;54.00;;;;;;20856;6752;117080;-87
2022/10/15 13:54:32;;;;;;;;;;;;;;;;;;;;;
2022/10/15 13:56:57;;;;;;;0.50;0.50;;;21.30;53.80;;;;;;20790;6747;116974;-91
2022/10/15 13:59:35;;;;;;;3.27;0.80;;;21.50;52.70;;;;;;20768;6748;281779;-88
2022/10/15 14:02:14;;;;;;;1.17;0.60;;;21.40;52.50;;;;;;20593;6776;307353;-87